sensor_id;sensor_type;location;lat;lon;timestamp;P1;durP1;ratioP1;P2;durP2;ratioP2
40252;SDS011;25972;51.854;4.534;2023-02-22T00:00:17;50.30;;;18.50;;
40252;SDS011;25972;51.854;4.534;2023-02-22T00:02:54;59.30;;;20.38;;
40252;SDS011;25972;51.854;4.534;2023-02-22T00:05:24;51.70;;;18.27;;
40252;SDS011;25972;51.854;4.534;2023-02-22T00:07:52;55.05;;;19.90;;
40252;SDS011;25972;51.854;4.534;2023-02-22T00:10:21;50.65;;;17.92;;
40252;SDS011;25972;51.854;4.534;2023-02-22T00:12:49;58.35;;;18.40;;
40252;SDS011;25972;51.854;4.534;2023-02-22T00:15:17;55.95;;;20.50;;
40252;SDS011;25972;51.854;4.534;2023-02-22T00:17:45;51.83;;;19.88;;
40252;SDS011;25972;51.854;4.534;2023-02-22T00:20:12;55.75;;;19.90;;
40252;SDS011;25972;51.854;4.534;2023-02-22T00:22:42;54.10;;;18.85;;
40252;SDS011;25972;51.854;4.534;2023-02-22T00:25:11;56.60;;;20.88;;
40252;SDS011;25972;51.854;4.534;2023-02-22T00:27:38;56.83;;;19.85;;
40252;SDS011;25972;51.854;4.534;2023-02-22T00:30:05;54.92;;;20.65;;
40252;SDS011;25972;51.854;4.534;2023-02-22T00:32:33;50.92;;;19.75;;
40252;SDS011;25972;51.854;4.534;2023-02-22T00:34:59;58.33;;;20.45;;
40252;SDS011;25972;51.854;4.534;2023-02-22T00:37:25;59.20;;;20.67;;
40252;SDS011;25972;51.854;4.534;2023-02-22T00:39:55;43.80;;;16.35;;
40252;SDS011;25972;51.854;4.534;2023-02-22T00:42:21;56.47;;;18.75;;
40252;SDS011;25972;51.854;4.534;2023-02-22T00:44:47;58.72;;;21.55;;
40252;SDS011;25972;51.854;4.534;2023-02-22T00:47:13;60.88;;;21.90;;
40252;SDS011;25972;51.854;4.534;2023-02-22T00:49:39;58.17;;;21.17;;
40252;SDS011;25972;51.854;4.534;2023-02-22T00:52:07;62.65;;;21.73;;
40252;SDS011;25972;51.854;4.534;2023-02-22T00:54:33;60.45;;;21.40;;
40252;SDS011;25972;51.854;4.534;2023-02-22T00:57:00;63.47;;;21.63;;
40252;SDS011;25972;51.854;4.534;2023-02-22T00:59:27;61.55;;;21.65;;
40252;SDS011;25972;51.854;4.534;2023-02-22T01:01:55;54.15;;;20.05;;
40252;SDS011;25972;51.854;4.534;2023-02-22T01:04:23;51.55;;;19.42;;
40252;SDS011;25972;51.854;4.534;2023-02-22T01:06:49;58.80;;;21.10;;
40252;SDS011;25972;51.854;4.534;2023-02-22T01:09:15;57.90;;;21.30;;
40252;SDS011;25972;51.854;4.534;2023-02-22T01:11:41;52.50;;;20.45;;
40252;SDS011;25972;51.854;4.534;2023-02-22T01:14:06;66.10;;;23.20;;
40252;SDS011;25972;51.854;4.534;2023-02-22T01:16:34;53.50;;;19.98;;
40252;SDS011;25972;51.854;4.534;2023-02-22T01:19:01;64.47;;;21.40;;
40252;SDS011;25972;51.854;4.534;2023-02-22T01:21:27;56.30;;;19.60;;
40252;SDS011;25972;51.854;4.534;2023-02-22T01:23:53;60.28;;;21.20;;
40252;SDS011;25972;51.854;4.534;2023-02-22T01:26:20;66.55;;;21.20;;
40252;SDS011;25972;51.854;4.534;2023-02-22T01:28:46;60.08;;;21.85;;
40252;SDS011;25972;51.854;4.534;2023-02-22T01:31:12;63.20;;;22.02;;
40252;SDS011;25972;51.854;4.534;2023-02-22T01:33:39;64.00;;;22.20;;
40252;SDS011;25972;51.854;4.534;2023-02-22T01:36:06;65.35;;;22.48;;
40252;SDS011;25972;51.854;4.534;2023-02-22T01:38:36;56.35;;;18.77;;
40252;SDS011;25972;51.854;4.534;2023-02-22T01:41:02;63.65;;;20.15;;
40252;SDS011;25972;51.854;4.534;2023-02-22T01:43:30;49.85;;;17.42;;
40252;SDS011;25972;51.854;4.534;2023-02-22T01:46:04;65.75;;;20.55;;
40252;SDS011;25972;51.854;4.534;2023-02-22T01:51:17;59.85;;;20.58;;
40252;SDS011;25972;51.854;4.534;2023-02-22T01:53:52;53.47;;;19.38;;
40252;SDS011;25972;51.854;4.534;2023-02-22T01:56:21;64.80;;;23.15;;
40252;SDS011;25972;51.854;4.534;2023-02-22T01:59:00;61.72;;;21.30;;
40252;SDS011;25972;51.854;4.534;2023-02-22T02:01:32;68.07;;;24.30;;
40252;SDS011;25972;51.854;4.534;2023-02-22T02:04:02;57.72;;;21.60;;
40252;SDS011;25972;51.854;4.534;2023-02-22T02:06:32;66.72;;;21.45;;
40252;SDS011;25972;51.854;4.534;2023-02-22T02:11:44;60.05;;;21.13;;
40252;SDS011;25972;51.854;4.534;2023-02-22T02:14:11;67.55;;;23.48;;
40252;SDS011;25972;51.854;4.534;2023-02-22T02:16:48;73.57;;;21.65;;
40252;SDS011;25972;51.854;4.534;2023-02-22T02:22:16;71.32;;;22.60;;
40252;SDS011;25972;51.854;4.534;2023-02-22T02:36:15;65.72;;;22.80;;
40252;SDS011;25972;51.854;4.534;2023-02-22T02:39:14;65.70;;;23.63;;
40252;SDS011;25972;51.854;4.534;2023-02-22T02:41:50;63.78;;;21.35;;
40252;SDS011;25972;51.854;4.534;2023-02-22T02:49:28;66.15;;;21.48;;
40252;SDS011;25972;51.854;4.534;2023-02-22T02:51:59;59.05;;;20.85;;
40252;SDS011;25972;51.854;4.534;2023-02-22T02:54:29;57.05;;;18.00;;
40252;SDS011;25972;51.854;4.534;2023-02-22T02:57:07;58.67;;;20.58;;
40252;SDS011;25972;51.854;4.534;2023-02-22T02:59:44;64.32;;;21.33;;
40252;SDS011;25972;51.854;4.534;2023-02-22T03:08:11;63.60;;;20.80;;
40252;SDS011;25972;51.854;4.534;2023-02-22T03:10:47;62.95;;;21.38;;
40252;SDS011;25972;51.854;4.534;2023-02-22T03:21:40;59.80;;;22.30;;
40252;SDS011;25972;51.854;4.534;2023-02-22T03:24:32;68.45;;;23.52;;
40252;SDS011;25972;51.854;4.534;2023-02-22T03:27:13;64.97;;;23.33;;
40252;SDS011;25972;51.854;4.534;2023-02-22T03:29:50;71.72;;;22.10;;
40252;SDS011;25972;51.854;4.534;2023-02-22T03:32:20;55.90;;;19.13;;
40252;SDS011;25972;51.854;4.534;2023-02-22T03:35:02;59.92;;;18.90;;
40252;SDS011;25972;51.854;4.534;2023-02-22T03:37:38;72.13;;;20.92;;
40252;SDS011;25972;51.854;4.534;2023-02-22T03:40:07;42.10;;;17.42;;
40252;SDS011;25972;51.854;4.534;2023-02-22T03:42:39;24.88;;;9.35;;
40252;SDS011;25972;51.854;4.534;2023-02-22T03:45:16;60.65;;;21.00;;
40252;SDS011;25972;51.854;4.534;2023-02-22T03:47:47;65.95;;;19.85;;
40252;SDS011;25972;51.854;4.534;2023-02-22T03:50:20;65.63;;;20.13;;
40252;SDS011;25972;51.854;4.534;2023-02-22T03:52:51;69.68;;;21.10;;
40252;SDS011;25972;51.854;4.534;2023-02-22T03:55:22;75.50;;;21.92;;
40252;SDS011;25972;51.854;4.534;2023-02-22T03:57:50;64.47;;;19.65;;
40252;SDS011;25972;51.854;4.534;2023-02-22T04:00:22;48.50;;;16.23;;
40252;SDS011;25972;51.854;4.534;2023-02-22T04:02:49;62.13;;;18.77;;
40252;SDS011;25972;51.854;4.534;2023-02-22T04:05:18;57.50;;;17.90;;
40252;SDS011;25972;51.854;4.534;2023-02-22T04:07:45;57.63;;;16.42;;
40252;SDS011;25972;51.854;4.534;2023-02-22T04:10:12;60.35;;;19.35;;
40252;SDS011;25972;51.854;4.534;2023-02-22T04:12:42;53.97;;;17.45;;
40252;SDS011;25972;51.854;4.534;2023-02-22T04:15:08;61.03;;;19.75;;
40252;SDS011;25972;51.854;4.534;2023-02-22T04:17:36;45.28;;;14.15;;
40252;SDS011;25972;51.854;4.534;2023-02-22T04:20:03;52.50;;;17.10;;
40252;SDS011;25972;51.854;4.534;2023-02-22T04:22:42;50.75;;;16.08;;
40252;SDS011;25972;51.854;4.534;2023-02-22T04:25:08;62.25;;;19.42;;
40252;SDS011;25972;51.854;4.534;2023-02-22T04:27:39;58.60;;;18.83;;
40252;SDS011;25972;51.854;4.534;2023-02-22T04:30:05;61.53;;;18.02;;
40252;SDS011;25972;51.854;4.534;2023-02-22T04:32:34;62.28;;;18.25;;
40252;SDS011;25972;51.854;4.534;2023-02-22T04:35:00;62.30;;;19.33;;
40252;SDS011;25972;51.854;4.534;2023-02-22T04:37:28;61.42;;;18.23;;
40252;SDS011;25972;51.854;4.534;2023-02-22T04:39:54;58.33;;;18.02;;
40252;SDS011;25972;51.854;4.534;2023-02-22T04:42:20;55.55;;;16.83;;
40252;SDS011;25972;51.854;4.534;2023-02-22T04:44:46;65.32;;;19.40;;
40252;SDS011;25972;51.854;4.534;2023-02-22T04:47:13;55.50;;;17.35;;
40252;SDS011;25972;51.854;4.534;2023-02-22T04:49:39;43.75;;;15.23;;
40252;SDS011;25972;51.854;4.534;2023-02-22T04:52:05;52.65;;;17.60;;
40252;SDS011;25972;51.854;4.534;2023-02-22T04:54:38;51.53;;;16.77;;
40252;SDS011;25972;51.854;4.534;2023-02-22T04:57:09;48.58;;;16.90;;
40252;SDS011;25972;51.854;4.534;2023-02-22T04:59:35;35.78;;;13.70;;
40252;SDS011;25972;51.854;4.534;2023-02-22T05:02:11;34.75;;;13.05;;
40252;SDS011;25972;51.854;4.534;2023-02-22T05:04:37;47.50;;;16.98;;
40252;SDS011;25972;51.854;4.534;2023-02-22T05:07:03;46.88;;;15.85;;
40252;SDS011;25972;51.854;4.534;2023-02-22T05:09:29;44.95;;;16.55;;
40252;SDS011;25972;51.854;4.534;2023-02-22T05:11:58;24.08;;;9.63;;
40252;SDS011;25972;51.854;4.534;2023-02-22T05:14:27;48.20;;;16.10;;
40252;SDS011;25972;51.854;4.534;2023-02-22T05:16:53;41.58;;;13.80;;
40252;SDS011;25972;51.854;4.534;2023-02-22T05:19:23;46.60;;;16.40;;
40252;SDS011;25972;51.854;4.534;2023-02-22T05:21:49;32.03;;;11.65;;
40252;SDS011;25972;51.854;4.534;2023-02-22T05:24:15;32.63;;;12.65;;
40252;SDS011;25972;51.854;4.534;2023-02-22T05:26:42;38.35;;;14.32;;
40252;SDS011;25972;51.854;4.534;2023-02-22T05:29:08;35.60;;;12.75;;
40252;SDS011;25972;51.854;4.534;2023-02-22T05:31:34;37.72;;;13.93;;
40252;SDS011;25972;51.854;4.534;2023-02-22T05:34:00;33.17;;;13.07;;
40252;SDS011;25972;51.854;4.534;2023-02-22T05:36:25;41.45;;;13.88;;
40252;SDS011;25972;51.854;4.534;2023-02-22T05:38:52;26.30;;;10.18;;
40252;SDS011;25972;51.854;4.534;2023-02-22T05:41:18;68.18;;;16.48;;
40252;SDS011;25972;51.854;4.534;2023-02-22T05:43:44;27.85;;;11.98;;
40252;SDS011;25972;51.854;4.534;2023-02-22T05:46:12;37.28;;;14.02;;
40252;SDS011;25972;51.854;4.534;2023-02-22T05:48:39;38.25;;;14.45;;
40252;SDS011;25972;51.854;4.534;2023-02-22T05:51:05;35.80;;;13.18;;
40252;SDS011;25972;51.854;4.534;2023-02-22T05:53:31;35.75;;;13.43;;
40252;SDS011;25972;51.854;4.534;2023-02-22T05:55:57;35.00;;;13.90;;
40252;SDS011;25972;51.854;4.534;2023-02-22T05:58:23;30.38;;;12.63;;
40252;SDS011;25972;51.854;4.534;2023-02-22T06:00:49;32.63;;;13.27;;
40252;SDS011;25972;51.854;4.534;2023-02-22T06:03:15;36.55;;;15.23;;
40252;SDS011;25972;51.854;4.534;2023-02-22T06:05:41;37.47;;;14.30;;
40252;SDS011;25972;51.854;4.534;2023-02-22T06:08:07;39.55;;;15.93;;
40252;SDS011;25972;51.854;4.534;2023-02-22T06:10:33;36.08;;;13.63;;
40252;SDS011;25972;51.854;4.534;2023-02-22T06:13:00;43.78;;;14.32;;
40252;SDS011;25972;51.854;4.534;2023-02-22T06:15:26;31.40;;;12.68;;
40252;SDS011;25972;51.854;4.534;2023-02-22T06:17:54;38.78;;;15.88;;
40252;SDS011;25972;51.854;4.534;2023-02-22T06:20:21;40.53;;;14.90;;
40252;SDS011;25972;51.854;4.534;2023-02-22T06:22:49;35.92;;;12.98;;
40252;SDS011;25972;51.854;4.534;2023-02-22T06:25:16;34.53;;;13.35;;
40252;SDS011;25972;51.854;4.534;2023-02-22T06:27:44;30.92;;;13.02;;
40252;SDS011;25972;51.854;4.534;2023-02-22T06:30:11;42.55;;;14.40;;
40252;SDS011;25972;51.854;4.534;2023-02-22T06:32:39;37.35;;;14.05;;
40252;SDS011;25972;51.854;4.534;2023-02-22T06:35:05;35.53;;;13.68;;
40252;SDS011;25972;51.854;4.534;2023-02-22T06:37:31;32.00;;;12.82;;
40252;SDS011;25972;51.854;4.534;2023-02-22T06:39:59;37.55;;;14.48;;
40252;SDS011;25972;51.854;4.534;2023-02-22T06:42:26;46.25;;;16.85;;
40252;SDS011;25972;51.854;4.534;2023-02-22T06:44:52;38.05;;;14.05;;
40252;SDS011;25972;51.854;4.534;2023-02-22T06:47:17;36.38;;;14.18;;
40252;SDS011;25972;51.854;4.534;2023-02-22T06:49:50;38.80;;;14.55;;
40252;SDS011;25972;51.854;4.534;2023-02-22T06:52:21;43.33;;;15.93;;
40252;SDS011;25972;51.854;4.534;2023-02-22T06:54:48;39.97;;;12.95;;
40252;SDS011;25972;51.854;4.534;2023-02-22T06:57:18;45.65;;;18.80;;
40252;SDS011;25972;51.854;4.534;2023-02-22T06:59:43;31.60;;;12.55;;
40252;SDS011;25972;51.854;4.534;2023-02-22T07:02:12;37.22;;;14.00;;
40252;SDS011;25972;51.854;4.534;2023-02-22T07:04:40;42.65;;;15.65;;
40252;SDS011;25972;51.854;4.534;2023-02-22T07:07:07;40.03;;;15.32;;
40252;SDS011;25972;51.854;4.534;2023-02-22T07:09:33;38.38;;;15.05;;
40252;SDS011;25972;51.854;4.534;2023-02-22T07:11:58;43.95;;;15.52;;
40252;SDS011;25972;51.854;4.534;2023-02-22T07:14:24;49.80;;;16.20;;
40252;SDS011;25972;51.854;4.534;2023-02-22T07:16:52;45.60;;;16.23;;
40252;SDS011;25972;51.854;4.534;2023-02-22T07:19:18;39.58;;;15.05;;
40252;SDS011;25972;51.854;4.534;2023-02-22T07:21:45;37.70;;;13.70;;
40252;SDS011;25972;51.854;4.534;2023-02-22T07:24:15;42.35;;;15.38;;
40252;SDS011;25972;51.854;4.534;2023-02-22T07:26:44;39.70;;;14.83;;
40252;SDS011;25972;51.854;4.534;2023-02-22T07:29:14;46.90;;;15.70;;
40252;SDS011;25972;51.854;4.534;2023-02-22T07:31:42;33.22;;;13.32;;
40252;SDS011;25972;51.854;4.534;2023-02-22T07:34:08;42.05;;;14.52;;
40252;SDS011;25972;51.854;4.534;2023-02-22T07:36:34;37.60;;;15.02;;
40252;SDS011;25972;51.854;4.534;2023-02-22T07:38:59;40.30;;;14.10;;
40252;SDS011;25972;51.854;4.534;2023-02-22T07:41:25;37.10;;;14.13;;
40252;SDS011;25972;51.854;4.534;2023-02-22T07:43:51;35.13;;;14.23;;
40252;SDS011;25972;51.854;4.534;2023-02-22T07:46:16;37.83;;;12.55;;
40252;SDS011;25972;51.854;4.534;2023-02-22T07:48:42;36.78;;;15.02;;
40252;SDS011;25972;51.854;4.534;2023-02-22T07:51:08;44.47;;;16.70;;
40252;SDS011;25972;51.854;4.534;2023-02-22T07:53:34;42.90;;;16.60;;
40252;SDS011;25972;51.854;4.534;2023-02-22T07:56:00;41.95;;;16.08;;
40252;SDS011;25972;51.854;4.534;2023-02-22T07:58:29;47.42;;;18.13;;
40252;SDS011;25972;51.854;4.534;2023-02-22T08:00:56;45.72;;;19.25;;
40252;SDS011;25972;51.854;4.534;2023-02-22T08:03:24;36.85;;;14.35;;
40252;SDS011;25972;51.854;4.534;2023-02-22T08:05:51;39.97;;;15.65;;
40252;SDS011;25972;51.854;4.534;2023-02-22T08:08:22;32.58;;;11.82;;
40252;SDS011;25972;51.854;4.534;2023-02-22T08:10:49;32.97;;;13.68;;
40252;SDS011;25972;51.854;4.534;2023-02-22T08:13:15;38.55;;;16.08;;
40252;SDS011;25972;51.854;4.534;2023-02-22T08:15:42;41.63;;;16.38;;
40252;SDS011;25972;51.854;4.534;2023-02-22T08:18:16;41.75;;;16.55;;
40252;SDS011;25972;51.854;4.534;2023-02-22T08:20:44;45.08;;;17.02;;
40252;SDS011;25972;51.854;4.534;2023-02-22T08:23:14;40.72;;;14.85;;
40252;SDS011;25972;51.854;4.534;2023-02-22T08:25:42;43.92;;;17.00;;
40252;SDS011;25972;51.854;4.534;2023-02-22T08:28:09;38.90;;;16.50;;
40252;SDS011;25972;51.854;4.534;2023-02-22T08:30:36;37.92;;;15.23;;
40252;SDS011;25972;51.854;4.534;2023-02-22T08:33:03;41.30;;;17.85;;
40252;SDS011;25972;51.854;4.534;2023-02-22T08:35:30;34.88;;;14.10;;
40252;SDS011;25972;51.854;4.534;2023-02-22T08:38:01;39.17;;;13.68;;
40252;SDS011;25972;51.854;4.534;2023-02-22T08:40:30;42.77;;;16.00;;
40252;SDS011;25972;51.854;4.534;2023-02-22T08:43:08;44.33;;;17.48;;
40252;SDS011;25972;51.854;4.534;2023-02-22T08:45:33;32.35;;;12.80;;
40252;SDS011;25972;51.854;4.534;2023-02-22T08:47:59;38.10;;;15.40;;
40252;SDS011;25972;51.854;4.534;2023-02-22T08:50:27;42.72;;;17.05;;
40252;SDS011;25972;51.854;4.534;2023-02-22T08:52:55;43.22;;;18.05;;
40252;SDS011;25972;51.854;4.534;2023-02-22T08:55:23;38.03;;;15.07;;
40252;SDS011;25972;51.854;4.534;2023-02-22T08:57:51;48.00;;;18.35;;
40252;SDS011;25972;51.854;4.534;2023-02-22T09:00:18;20.67;;;9.15;;
40252;SDS011;25972;51.854;4.534;2023-02-22T09:02:45;39.63;;;14.82;;
40252;SDS011;25972;51.854;4.534;2023-02-22T09:05:12;42.75;;;17.70;;
40252;SDS011;25972;51.854;4.534;2023-02-22T09:07:41;31.30;;;13.18;;
40252;SDS011;25972;51.854;4.534;2023-02-22T09:10:18;45.55;;;16.35;;
40252;SDS011;25972;51.854;4.534;2023-02-22T09:12:51;41.40;;;14.65;;
40252;SDS011;25972;51.854;4.534;2023-02-22T09:15:21;26.83;;;9.73;;
40252;SDS011;25972;51.854;4.534;2023-02-22T09:17:48;23.92;;;8.00;;
40252;SDS011;25972;51.854;4.534;2023-02-22T09:20:16;41.00;;;16.98;;
40252;SDS011;25972;51.854;4.534;2023-02-22T09:22:46;46.42;;;17.80;;
40252;SDS011;25972;51.854;4.534;2023-02-22T09:25:13;43.05;;;17.45;;
40252;SDS011;25972;51.854;4.534;2023-02-22T09:27:39;48.83;;;18.55;;
40252;SDS011;25972;51.854;4.534;2023-02-22T09:30:07;45.30;;;17.80;;
40252;SDS011;25972;51.854;4.534;2023-02-22T09:32:40;38.95;;;15.23;;
40252;SDS011;25972;51.854;4.534;2023-02-22T09:35:06;41.80;;;15.38;;
40252;SDS011;25972;51.854;4.534;2023-02-22T09:37:33;38.38;;;14.32;;
40252;SDS011;25972;51.854;4.534;2023-02-22T09:39:59;44.03;;;16.52;;
40252;SDS011;25972;51.854;4.534;2023-02-22T09:42:38;39.95;;;17.00;;
40252;SDS011;25972;51.854;4.534;2023-02-22T09:45:19;35.42;;;14.43;;
40252;SDS011;25972;51.854;4.534;2023-02-22T09:47:58;45.15;;;17.45;;
40252;SDS011;25972;51.854;4.534;2023-02-22T09:50:29;44.30;;;17.42;;
40252;SDS011;25972;51.854;4.534;2023-02-22T09:55:49;36.33;;;15.98;;
40252;SDS011;25972;51.854;4.534;2023-02-22T09:58:35;37.53;;;14.68;;
40252;SDS011;25972;51.854;4.534;2023-02-22T10:01:11;42.42;;;17.05;;
40252;SDS011;25972;51.854;4.534;2023-02-22T10:03:48;41.15;;;15.23;;
40252;SDS011;25972;51.854;4.534;2023-02-22T10:06:25;36.63;;;15.27;;
40252;SDS011;25972;51.854;4.534;2023-02-22T10:08:58;33.38;;;14.63;;
40252;SDS011;25972;51.854;4.534;2023-02-22T10:20:25;45.78;;;20.55;;
40252;SDS011;25972;51.854;4.534;2023-02-22T10:22:46;41.20;;;18.65;;
40252;SDS011;25972;51.854;4.534;2023-02-22T10:25:19;31.90;;;15.18;;
40252;SDS011;25972;51.854;4.534;2023-02-22T10:30:21;34.60;;;14.63;;
40252;SDS011;25972;51.854;4.534;2023-02-22T10:35:28;29.73;;;13.73;;
40252;SDS011;25972;51.854;4.534;2023-02-22T10:41:30;30.42;;;13.85;;
40252;SDS011;25972;51.854;4.534;2023-02-22T10:43:43;31.83;;;13.82;;
40252;SDS011;25972;51.854;4.534;2023-02-22T10:46:11;28.27;;;13.93;;
40252;SDS011;25972;51.854;4.534;2023-02-22T10:48:40;28.83;;;14.18;;
40252;SDS011;25972;51.854;4.534;2023-02-22T10:51:09;29.52;;;13.93;;
40252;SDS011;25972;51.854;4.534;2023-02-22T10:53:36;28.60;;;12.40;;
40252;SDS011;25972;51.854;4.534;2023-02-22T10:56:18;28.40;;;13.35;;
40252;SDS011;25972;51.854;4.534;2023-02-22T11:04:05;28.85;;;13.43;;
40252;SDS011;25972;51.854;4.534;2023-02-22T11:06:38;30.17;;;14.15;;
40252;SDS011;25972;51.854;4.534;2023-02-22T11:09:07;29.08;;;13.30;;
40252;SDS011;25972;51.854;4.534;2023-02-22T11:11:46;27.80;;;14.18;;
40252;SDS011;25972;51.854;4.534;2023-02-22T11:14:23;30.48;;;14.18;;
40252;SDS011;25972;51.854;4.534;2023-02-22T11:16:55;27.55;;;12.90;;
40252;SDS011;25972;51.854;4.534;2023-02-22T11:21:50;24.00;;;11.90;;
40252;SDS011;25972;51.854;4.534;2023-02-22T11:24:20;26.10;;;13.43;;
40252;SDS011;25972;51.854;4.534;2023-02-22T11:26:49;29.50;;;12.93;;
40252;SDS011;25972;51.854;4.534;2023-02-22T11:29:26;27.55;;;13.77;;
40252;SDS011;25972;51.854;4.534;2023-02-22T11:31:57;28.30;;;13.73;;
40252;SDS011;25972;51.854;4.534;2023-02-22T11:34:31;28.88;;;13.75;;
40252;SDS011;25972;51.854;4.534;2023-02-22T11:37:15;30.02;;;13.45;;
40252;SDS011;25972;51.854;4.534;2023-02-22T11:42:43;28.98;;;13.38;;
40252;SDS011;25972;51.854;4.534;2023-02-22T11:45:20;30.05;;;12.48;;
40252;SDS011;25972;51.854;4.534;2023-02-22T11:50:30;29.70;;;13.73;;
40252;SDS011;25972;51.854;4.534;2023-02-22T11:56:24;30.33;;;12.75;;
40252;SDS011;25972;51.854;4.534;2023-02-22T11:59:05;32.08;;;14.10;;
40252;SDS011;25972;51.854;4.534;2023-02-22T12:01:48;28.95;;;13.10;;
40252;SDS011;25972;51.854;4.534;2023-02-22T12:04:24;29.13;;;13.23;;
40252;SDS011;25972;51.854;4.534;2023-02-22T12:15:20;29.95;;;13.80;;
40252;SDS011;25972;51.854;4.534;2023-02-22T12:18:08;35.30;;;15.18;;
40252;SDS011;25972;51.854;4.534;2023-02-22T12:20:54;29.30;;;13.73;;
40252;SDS011;25972;51.854;4.534;2023-02-22T12:23:30;27.98;;;12.95;;
40252;SDS011;25972;51.854;4.534;2023-02-22T12:26:14;29.10;;;13.23;;
40252;SDS011;25972;51.854;4.534;2023-02-22T12:28:55;29.80;;;13.63;;
40252;SDS011;25972;51.854;4.534;2023-02-22T12:31:42;29.75;;;13.30;;
40252;SDS011;25972;51.854;4.534;2023-02-22T12:40:19;26.17;;;12.18;;
40252;SDS011;25972;51.854;4.534;2023-02-22T12:42:56;28.65;;;14.00;;
40252;SDS011;25972;51.854;4.534;2023-02-22T12:45:49;27.88;;;14.30;;
40252;SDS011;25972;51.854;4.534;2023-02-22T12:56:49;29.35;;;15.38;;
40252;SDS011;25972;51.854;4.534;2023-02-22T13:01:52;29.83;;;12.82;;
40252;SDS011;25972;51.854;4.534;2023-02-22T13:04:36;29.73;;;14.45;;
40252;SDS011;25972;51.854;4.534;2023-02-22T13:07:17;29.27;;;14.15;;
40252;SDS011;25972;51.854;4.534;2023-02-22T13:12:51;29.95;;;13.05;;
40252;SDS011;25972;51.854;4.534;2023-02-22T13:16:05;27.25;;;14.57;;
40252;SDS011;25972;51.854;4.534;2023-02-22T13:18:47;33.20;;;14.82;;
40252;SDS011;25972;51.854;4.534;2023-02-22T13:21:54;28.45;;;14.48;;
40252;SDS011;25972;51.854;4.534;2023-02-22T13:27:27;24.33;;;11.90;;
40252;SDS011;25972;51.854;4.534;2023-02-22T13:30:26;19.17;;;9.83;;
40252;SDS011;25972;51.854;4.534;2023-02-22T13:33:10;26.83;;;14.20;;
40252;SDS011;25972;51.854;4.534;2023-02-22T13:44:11;25.65;;;12.88;;
40252;SDS011;25972;51.854;4.534;2023-02-22T13:49:34;21.30;;;9.85;;
40252;SDS011;25972;51.854;4.534;2023-02-22T13:52:27;20.77;;;9.88;;
40252;SDS011;25972;51.854;4.534;2023-02-22T13:54:59;29.48;;;15.55;;
40252;SDS011;25972;51.854;4.534;2023-02-22T13:57:29;24.92;;;12.13;;
40252;SDS011;25972;51.854;4.534;2023-02-22T14:08:07;31.23;;;15.98;;
40252;SDS011;25972;51.854;4.534;2023-02-22T14:10:52;24.50;;;14.77;;
40252;SDS011;25972;51.854;4.534;2023-02-22T14:13:28;30.92;;;15.73;;
40252;SDS011;25972;51.854;4.534;2023-02-22T14:18:28;29.10;;;13.30;;
40252;SDS011;25972;51.854;4.534;2023-02-22T14:21:06;25.97;;;13.87;;
40252;SDS011;25972;51.854;4.534;2023-02-22T14:28:57;23.38;;;11.18;;
40252;SDS011;25972;51.854;4.534;2023-02-22T14:34:09;35.67;;;19.02;;
40252;SDS011;25972;51.854;4.534;2023-02-22T14:41:50;18.42;;;9.25;;
40252;SDS011;25972;51.854;4.534;2023-02-22T14:44:25;25.48;;;13.68;;
40252;SDS011;25972;51.854;4.534;2023-02-22T14:46:57;39.83;;;19.48;;
40252;SDS011;25972;51.854;4.534;2023-02-22T14:49:29;32.15;;;16.42;;
40252;SDS011;25972;51.854;4.534;2023-02-22T14:52:01;35.55;;;17.70;;
40252;SDS011;25972;51.854;4.534;2023-02-22T14:54:43;32.63;;;17.92;;
40252;SDS011;25972;51.854;4.534;2023-02-22T14:57:40;34.30;;;18.38;;
40252;SDS011;25972;51.854;4.534;2023-02-22T15:00:44;37.88;;;18.08;;
40252;SDS011;25972;51.854;4.534;2023-02-22T15:03:17;27.15;;;12.43;;
40252;SDS011;25972;51.854;4.534;2023-02-22T15:06:12;24.60;;;13.80;;
40252;SDS011;25972;51.854;4.534;2023-02-22T15:08:44;41.13;;;20.60;;
40252;SDS011;25972;51.854;4.534;2023-02-22T15:11:24;39.58;;;18.48;;
40252;SDS011;25972;51.854;4.534;2023-02-22T15:13:55;45.45;;;23.17;;
40252;SDS011;25972;51.854;4.534;2023-02-22T15:16:22;61.15;;;28.45;;
40252;SDS011;25972;51.854;4.534;2023-02-22T15:18:56;95.28;;;32.75;;
40252;SDS011;25972;51.854;4.534;2023-02-22T15:21:24;55.80;;;24.67;;
40252;SDS011;25972;51.854;4.534;2023-02-22T15:23:55;46.10;;;24.95;;
40252;SDS011;25972;51.854;4.534;2023-02-22T15:26:32;25.95;;;11.57;;
40252;SDS011;25972;51.854;4.534;2023-02-22T15:29:03;46.97;;;25.73;;
40252;SDS011;25972;51.854;4.534;2023-02-22T15:31:52;35.85;;;17.52;;
40252;SDS011;25972;51.854;4.534;2023-02-22T15:34:26;34.45;;;16.23;;
40252;SDS011;25972;51.854;4.534;2023-02-22T15:36:55;53.38;;;25.75;;
40252;SDS011;25972;51.854;4.534;2023-02-22T15:39:29;56.72;;;28.02;;
40252;SDS011;25972;51.854;4.534;2023-02-22T15:42:08;59.55;;;27.67;;
40252;SDS011;25972;51.854;4.534;2023-02-22T15:44:48;62.58;;;27.38;;
40252;SDS011;25972;51.854;4.534;2023-02-22T15:55:35;65.63;;;30.40;;
40252;SDS011;25972;51.854;4.534;2023-02-22T15:58:09;60.75;;;27.05;;
40252;SDS011;25972;51.854;4.534;2023-02-22T16:00:37;64.60;;;30.23;;
40252;SDS011;25972;51.854;4.534;2023-02-22T16:03:12;60.70;;;30.50;;
40252;SDS011;25972;51.854;4.534;2023-02-22T16:05:44;66.30;;;31.67;;
40252;SDS011;25972;51.854;4.534;2023-02-22T16:08:19;59.03;;;31.08;;
40252;SDS011;25972;51.854;4.534;2023-02-22T16:13:37;71.35;;;29.20;;
40252;SDS011;25972;51.854;4.534;2023-02-22T16:18:44;75.30;;;32.30;;
40252;SDS011;25972;51.854;4.534;2023-02-22T16:21:12;90.93;;;38.95;;
40252;SDS011;25972;51.854;4.534;2023-02-22T16:23:45;39.28;;;16.52;;
40252;SDS011;25972;51.854;4.534;2023-02-22T16:28:49;69.35;;;31.48;;
40252;SDS011;25972;51.854;4.534;2023-02-22T16:31:17;66.15;;;29.25;;
40252;SDS011;25972;51.854;4.534;2023-02-22T16:33:49;64.87;;;28.13;;
40252;SDS011;25972;51.854;4.534;2023-02-22T16:36:17;48.08;;;20.58;;
40252;SDS011;25972;51.854;4.534;2023-02-22T16:38:45;70.35;;;31.48;;
40252;SDS011;25972;51.854;4.534;2023-02-22T16:41:13;64.70;;;26.65;;
40252;SDS011;25972;51.854;4.534;2023-02-22T16:43:44;74.05;;;32.38;;
40252;SDS011;25972;51.854;4.534;2023-02-22T16:46:18;68.63;;;30.63;;
40252;SDS011;25972;51.854;4.534;2023-02-22T16:48:44;52.50;;;20.55;;
40252;SDS011;25972;51.854;4.534;2023-02-22T16:51:23;60.38;;;26.40;;
40252;SDS011;25972;51.854;4.534;2023-02-22T16:53:52;74.97;;;31.90;;
40252;SDS011;25972;51.854;4.534;2023-02-22T16:56:19;58.20;;;25.20;;
40252;SDS011;25972;51.854;4.534;2023-02-22T16:58:48;62.08;;;27.52;;
40252;SDS011;25972;51.854;4.534;2023-02-22T17:01:17;55.75;;;20.95;;
40252;SDS011;25972;51.854;4.534;2023-02-22T17:03:43;73.45;;;30.33;;
40252;SDS011;25972;51.854;4.534;2023-02-22T17:06:09;65.00;;;28.63;;
40252;SDS011;25972;51.854;4.534;2023-02-22T17:08:39;59.42;;;25.73;;
40252;SDS011;25972;51.854;4.534;2023-02-22T17:11:05;59.90;;;27.13;;
40252;SDS011;25972;51.854;4.534;2023-02-22T17:13:32;63.25;;;28.02;;
40252;SDS011;25972;51.854;4.534;2023-02-22T17:15:59;64.65;;;28.23;;
40252;SDS011;25972;51.854;4.534;2023-02-22T17:18:26;53.97;;;25.33;;
40252;SDS011;25972;51.854;4.534;2023-02-22T17:20:54;59.55;;;26.17;;